Time;durP1;ratioP1;P1;durP2;ratioP2;P2;SDS_P1;SDS_P2;PMS_P1;PMS_P2;Temp;Humidity;BMP_temperature;BMP_pressure;BME280_temperature;BME280_humidity;BME280_pressure;Samples;Min_cycle;Max_cycle;Signal;HPM_P1;HPM_P2
2022/10/14 00:01:06;;;;;;;14.57;9.53;;;;;;;8.12;100.00;100884.03;5072239;28;20275;-74
2022/10/14 00:03:34;;;;;;;16.13;10.20;;;;;;;8.11;100.00;100884.94;5070602;28;20210;-73
2022/10/14 00:06:04;;;;;;;15.30;9.43;;;;;;;8.08;100.00;100879.75;5073751;28;20202;-73
2022/10/14 00:08:31;;;;;;;16.73;9.87;;;;;;;8.10;100.00;100882.34;5066347;28;20198;-73
2022/10/14 00:11:02;;;;;;;17.57;9.87;;;;;;;8.12;100.00;100888.38;5068234;28;20206;-73
2022/10/14 00:13:29;;;;;;;16.77;10.03;;;;;;;8.10;100.00;100885.78;5066911;28;20210;-74
2022/10/14 00:15:58;;;;;;;18.47;10.27;;;;;;;8.05;100.00;100879.78;5071735;28;20202;-74
2022/10/14 00:18:24;;;;;;;18.00;10.83;;;;;;;8.02;100.00;100878.97;5071188;28;20566;-73
2022/10/14 00:20:55;;;;;;;15.97;10.67;;;;;;;8.00;100.00;100871.19;5072967;28;20214;-73
2022/10/14 00:23:21;;;;;;;15.30;10.17;;;;;;;7.99;100.00;100869.50;5053868;28;20198;-73
2022/10/14 00:25:48;;;;;;;13.27;8.87;;;;;;;7.93;100.00;100870.44;5066274;28;20191;-73
2022/10/14 00:28:15;;;;;;;19.73;8.40;;;;;;;7.89;100.00;100873.91;5058193;28;20277;-74
2022/10/14 00:30:41;;;;;;;15.37;8.83;;;;;;;7.84;100.00;100870.50;5064073;28;20218;-73
2022/10/14 00:33:08;;;;;;;16.17;9.97;;;;;;;7.80;100.00;100873.19;5057335;28;20193;-74
2022/10/14 00:35:36;;;;;;;15.73;9.70;;;;;;;7.78;100.00;100880.97;5041911;28;20205;-73
2022/10/14 00:38:04;;;;;;;23.27;9.93;;;;;;;7.75;100.00;100878.41;5063629;28;20194;-73
2022/10/14 00:40:31;;;;;;;16.90;9.63;;;;;;;7.70;100.00;100885.38;5042345;28;20707;-74
2022/10/14 00:42:57;;;;;;;17.53;9.67;;;;;;;7.64;100.00;100886.31;5067437;28;20197;-74
2022/10/14 00:45:24;;;;;;;15.80;10.03;;;;;;;7.61;100.00;100883.72;5062582;28;20210;-75
2022/10/14 00:47:52;;;;;;;13.80;9.00;;;;;;;7.58;100.00;100887.22;5050943;28;20198;-73
2022/10/14 00:50:20;;;;;;;13.90;9.70;;;;;;;7.54;100.00;100880.31;5063508;28;20225;-73
2022/10/14 00:52:47;;;;;;;14.40;9.40;;;;;;;7.53;100.00;100883.81;5048390;28;20660;-73
2022/10/14 00:55:18;;;;;;;17.73;9.37;;;;;;;7.53;100.00;100888.16;5046984;28;20218;-74
2022/10/14 00:57:45;;;;;;;15.53;9.30;;;;;;;7.48;100.00;100890.78;5044842;28;20708;-73
2022/10/14 01:00:14;;;;;;;11.50;8.40;;;;;;;7.46;100.00;100891.66;5049507;28;20218;-71
2022/10/14 01:02:41;;;;;;;17.57;10.20;;;;;;;7.44;100.00;100888.22;5050619;28;20213;-72
2022/10/14 01:05:10;;;;;;;14.47;9.33;;;;;;;7.45;100.00;100890.81;5052516;28;20215;-73
2022/10/14 01:07:47;;;;;;;15.83;9.73;;;;;;;7.44;100.00;100885.63;5042207;28;20203;-73
2022/10/14 01:10:24;;;;;;;14.77;9.50;;;;;;;7.44;100.00;100886.50;5038200;28;20213;-74
2022/10/14 01:13:04;;;;;;;14.93;9.17;;;;;;;7.43;100.00;100884.78;5061376;28;20229;-72
2022/10/14 01:15:38;;;;;;;15.07;9.10;;;;;;;7.43;100.00;100886.50;5039980;28;20204;-73
2022/10/14 01:18:18;;;;;;;16.37;9.37;;;;;;;7.44;100.00;100890.81;5065511;28;20660;-73
2022/10/14 01:21:05;;;;;;;14.73;9.47;;;;;;;7.44;100.00;100888.22;5048960;28;20291;-73
2022/10/14 01:23:46;;;;;;;17.47;10.07;;;;;;;7.43;100.00;100876.13;5042943;28;20713;-73
2022/10/14 01:26:28;;;;;;;16.57;9.77;;;;;;;7.43;100.00;100886.50;5069132;28;20205;-72
2022/10/14 01:29:12;;;;;;;15.43;9.37;;;;;;;7.43;100.00;100889.97;5073457;28;20669;-73
2022/10/14 01:31:45;;;;;;;15.57;9.50;;;;;;;7.43;100.00;100891.69;5087801;28;20580;-73
2022/10/14 01:34:18;;;;;;;13.37;9.00;;;;;;;7.41;100.00;100878.75;5099496;28;20629;-73
2022/10/14 01:36:49;;;;;;;15.67;8.60;;;;;;;7.44;100.00;100888.22;5068877;28;20205;-73
2022/10/14 01:39:20;;;;;;;17.47;10.63;;;;;;;7.44;100.00;100880.44;5078150;28;20212;-73
2022/10/14 01:41:51;;;;;;;16.23;9.87;;;;;;;7.44;100.00;100878.72;5070446;28;20202;-73
2022/10/14 01:44:21;;;;;;;17.33;9.87;;;;;;;7.44;100.00;100883.91;5077297;28;20225;-72
2022/10/14 01:46:53;;;;;;;15.23;9.50;;;;;;;7.44;100.00;100876.13;5073040;28;20308;-73
2022/10/14 01:49:27;;;;;;;19.03;10.50;;;;;;;7.42;100.00;100872.66;5101697;28;20201;-73
2022/10/14 01:51:59;;;;;;;18.77;10.70;;;;;;;7.42;100.00;100871.81;5089685;28;20687;-72
2022/10/14 01:54:31;;;;;;;17.87;9.97;;;;;;;7.37;100.00;100871.88;5071939;28;20672;-73
2022/10/14 01:57:02;;;;;;;14.10;9.53;;;;;;;7.34;100.00;100861.50;5089155;28;20596;-72
2022/10/14 01:59:30;;;;;;;14.00;8.67;;;;;;;7.31;100.00;100856.34;5065256;28;20194;-73
2022/10/14 02:01:58;;;;;;;15.30;9.43;;;;;;;7.27;100.00;100855.50;5068210;28;20197;-72
2022/10/14 02:04:24;;;;;;;17.73;10.03;;;;;;;7.26;100.00;100855.53;5091422;28;20223;-72
2022/10/14 02:07:00;;;;;;;14.50;8.87;;;;;;;7.20;100.00;100851.25;5073555;28;20209;-73
2022/10/14 02:09:36;;;;;;;14.93;9.80;;;;;;;7.17;100.00;100859.06;5089329;28;20283;-73
2022/10/14 02:12:17;;;;;;;15.87;9.87;;;;;;;7.13;100.00;100854.78;5085028;28;20204;-73
2022/10/14 02:14:50;;;;;;;16.47;10.40;;;;;;;7.14;100.00;100861.66;5070791;28;20740;-72
2022/10/14 02:17:26;;;;;;;22.43;10.83;;;;;;;7.11;100.00;100861.72;5070124;28;20235;-72
2022/10/14 02:19:58;;;;;;;15.10;9.43;;;;;;;7.12;100.00;100858.22;5072223;28;20203;-72
2022/10/14 02:22:30;;;;;;;15.20;9.33;;;;;;;7.16;100.00;100865.13;5069898;28;20212;-75
2022/10/14 02:25:01;;;;;;;17.97;10.77;;;;;;;7.18;100.00;100864.22;5058234;22;20280;-74
2022/10/14 02:27:31;;;;;;;15.03;9.77;;;;;;;7.16;100.00;100857.34;5042734;28;20316;-73
2022/10/14 02:29:59;;;;;;;13.87;8.60;;;;;;;7.14;100.00;100851.28;5046225;28;20206;-74
2022/10/14 02:32:28;;;;;;;15.03;9.57;;;;;;;7.12;100.00;100855.63;5045623;28;20661;-74
2022/10/14 02:34:58;;;;;;;13.77;9.10;;;;;;;7.10;100.00;100852.19;5042470;28;20202;-74
2022/10/14 02:37:28;;;;;;;14.30;9.17;;;;;;;7.09;100.00;100853.94;5044853;28;20198;-73
2022/10/14 02:40:00;;;;;;;18.83;10.83;;;;;;;7.10;100.00;100847.00;5079068;23;20236;-69
2022/10/14 02:42:31;;;;;;;17.30;9.77;;;;;;;7.09;100.00;100851.34;5066549;28;20188;-69
2022/10/14 02:45:00;;;;;;;15.60;10.00;;;;;;;7.07;100.00;100842.72;5041314;28;20235;-70
2022/10/14 02:47:28;;;;;;;14.77;9.20;;;;;;;7.07;100.00;100845.31;5041332;28;20209;-70
2022/10/14 02:49:54;;;;;;;17.73;9.93;;;;;;;7.10;100.00;100840.09;5053699;28;20208;-70
2022/10/14 02:52:22;;;;;;;15.60;10.20;;;;;;;7.09;100.00;100829.72;5070135;28;20213;-70
2022/10/14 02:54:48;;;;;;;16.20;9.77;;;;;;;7.11;100.00;100831.44;5070851;28;20232;-70
2022/10/14 02:57:15;;;;;;;16.60;10.13;;;;;;;7.14;100.00;100834.03;5054764;28;20584;-70
2022/10/14 02:59:42;;;;;;;15.17;9.93;;;;;;;7.16;100.00;100840.06;5055207;28;20212;-70
2022/10/14 03:02:08;;;;;;;19.17;10.33;;;;;;;7.18;100.00;100843.47;5051134;28;20208;-70
2022/10/14 03:04:39;;;;;;;18.83;9.90;;;;;;;7.20;100.00;100841.72;5052904;28;20220;-70
2022/10/14 03:07:07;;;;;;;17.13;10.87;;;;;;;7.22;100.00;100839.13;5052408;28;20214;-69
2022/10/14 03:09:39;;;;;;;17.57;10.00;;;;;;;7.26;100.00;100848.59;5053841;28;20264;-71
2022/10/14 03:12:07;;;;;;;15.77;10.30;;;;;;;7.28;100.00;100843.41;5051937;28;20262;-70
2022/10/14 03:14:34;;;;;;;16.83;10.17;;;;;;;7.30;100.00;100852.00;5045722;28;20313;-69
2022/10/14 03:17:02;;;;;;;16.20;10.63;;;;;;;7.32;100.00;100837.31;5050249;28;20210;-70
2022/10/14 03:19:32;;;;;;;14.53;9.73;;;;;;;7.35;100.00;100843.34;5039972;28;20540;-70
2022/10/14 03:21:59;;;;;;;17.50;10.70;;;;;;;7.37;100.00;100840.75;5070914;28;20210;-71
2022/10/14 03:24:26;;;;;;;21.97;11.57;;;;;;;7.39;100.00;100847.63;5054912;28;20450;-70
2022/10/14 03:27:17;;;;;;;21.77;11.83;;;;;;;7.44;100.00;100845.00;5045112;28;20198;-70
2022/10/14 03:29:46;;;;;;;16.73;10.93;;;;;;;7.49;100.00;100839.75;5049971;28;20292;-70
2022/10/14 03:32:18;;;;;;;15.07;9.27;;;;;;;7.51;100.00;100838.88;5056157;28;20428;-70
2022/10/14 03:35:11;;;;;;;18.73;10.87;;;;;;;7.54;100.00;100840.56;5045204;28;20578;-70
2022/10/14 03:37:42;;;;;;;23.57;13.03;;;;;;;7.57;100.00;100843.97;5042544;28;20201;-70
2022/10/14 03:40:10;;;;;;;20.60;10.97;;;;;;;7.61;100.00;100834.41;5056153;28;20690;-70
2022/10/14 03:42:36;;;;;;;18.50;10.73;;;;;;;7.63;100.00;100840.44;5078225;28;20227;-71
2022/10/14 03:45:05;;;;;;;24.00;11.33;;;;;;;7.65;100.00;100837.84;5052431;28;20497;-70
2022/10/14 03:47:32;;;;;;;16.90;11.53;;;;;;;7.67;100.00;100838.69;5078866;28;20225;-70
2022/10/14 03:50:01;;;;;;;15.80;10.10;;;;;;;7.68;100.00;100837.81;5038228;28;20199;-69
2022/10/14 03:52:34;;;;;;;20.47;11.90;;;;;;;7.72;100.00;100832.59;5046098;28;20249;-69
2022/10/14 03:55:13;;;;;;;20.43;11.20;;;;;;;7.75;100.00;100836.88;5041127;28;20246;-70
2022/10/14 03:57:42;;;;;;;18.00;11.20;;;;;;;7.77;100.00;100829.94;5043388;28;20235;-70
2022/10/14 04:00:11;;;;;;;21.77;11.30;;;;;;;7.78;100.00;100826.47;5053940;28;20195;-71
2022/10/14 04:02:40;;;;;;;20.13;11.30;;;;;;;7.84;100.00;100833.31;5072167;28;20194;-71
2022/10/14 04:05:12;;;;;;;22.83;12.10;;;;;;;7.85;100.00;100825.50;5041164;28;20823;-70
2022/10/14 04:07:40;;;;;;;21.97;11.87;;;;;;;7.87;100.00;100822.91;5049556;28;20203;-70
2022/10/14 04:10:08;;;;;;;16.90;10.83;;;;;;;7.88;100.00;100824.59;5039276;28;20672;-70
2022/10/14 04:12:39;;;;;;;16.00;10.70;;;;;;;7.91;100.00;100819.38;5044130;28;20211;-71
2022/10/14 04:15:10;;;;;;;17.17;10.93;;;;;;;7.93;100.00;100812.44;5061561;28;20222;-70
2022/10/14 04:17:56;;;;;;;19.67;10.53;;;;;;;7.93;100.00;100812.44;5048444;28;20202;-70
2022/10/14 04:20:22;;;;;;;19.23;11.27;;;;;;;7.94;100.00;100806.38;5040309;28;20438;-70
2022/10/14 04:22:52;;;;;;;16.87;10.93;;;;;;;7.95;100.00;100801.16;5050907;28;20567;-70
2022/10/14 04:25:20;;;;;;;16.63;11.13;;;;;;;7.96;100.00;100800.28;5031106;28;20757;-70
2022/10/14 04:27:54;;;;;;;15.77;10.27;;;;;;;7.97;100.00;100802.00;5029434;28;20203;-71
2022/10/14 04:30:23;;;;;;;15.83;10.73;;;;;;;7.97;100.00;100796.81;5027232;28;20208;-71
2022/10/14 04:32:53;;;;;;;19.93;11.73;;;;;;;7.99;100.00;100790.75;5068100;28;20218;-69
2022/10/14 04:35:21;;;;;;;17.30;10.13;;;;;;;8.00;100.00;100795.03;5038146;28;20572;-70
2022/10/14 04:37:54;;;;;;;15.90;9.53;;;;;;;8.01;100.00;100800.22;5036662;28;20207;-70
2022/10/14 04:40:24;;;;;;;17.77;11.23;;;;;;;8.03;100.00;100789.81;5035333;28;20215;-70
2022/10/14 04:42:56;;;;;;;18.67;10.27;;;;;;;8.01;100.00;100784.63;5035169;28;20191;-68
2022/10/14 04:45:27;;;;;;;17.70;11.80;;;;;;;8.01;100.00;100787.25;5041126;28;20301;-71
2022/10/14 04:47:59;;;;;;;21.90;10.80;;;;;;;8.00;100.00;100788.09;5043783;28;20254;-71
2022/10/14 04:50:26;;;;;;;17.27;10.03;;;;;;;7.99;100.00;100791.59;5028288;28;20207;-70
2022/10/14 04:53:11;;;;;;;17.27;10.30;;;;;;;7.98;100.00;100784.69;5056826;28;20284;-70
2022/10/14 04:55:44;;;;;;;16.40;10.30;;;;;;;7.99;100.00;100786.41;5049832;28;20254;-69
2022/10/14 04:58:12;;;;;;;17.17;10.33;;;;;;;7.99;100.00;100789.00;5064806;28;20674;-70
2022/10/14 05:00:42;;;;;;;20.43;12.30;;;;;;;8.00;100.00;100789.84;5035830;28;20205;-70
2022/10/14 05:03:27;;;;;;;19.90;12.23;;;;;;;8.01;100.00;100784.63;5045329;28;20194;-69
2022/10/14 05:05:53;;;;;;;19.13;12.83;;;;;;;8.05;100.00;100786.31;5043451;28;20218;-69
2022/10/14 05:08:20;;;;;;;20.23;11.47;;;;;;;8.06;100.00;100788.03;5046086;28;20213;-70
2022/10/14 05:10:50;;;;;;;21.03;12.00;;;;;;;8.08;100.00;100788.03;5044131;28;20252;-70
2022/10/14 05:13:32;;;;;;;19.50;11.30;;;;;;;8.10;100.00;100786.25;5032343;28;20291;-70
2022/10/14 05:16:03;;;;;;;21.10;12.03;;;;;;;8.12;100.00;100785.34;5053049;28;20292;-70
2022/10/14 05:18:30;;;;;;;22.67;13.57;;;;;;;8.13;100.00;100781.88;5045258;28;20214;-70
2022/10/14 05:21:03;;;;;;;23.03;12.57;;;;;;;8.17;100.00;100785.28;5039647;28;20206;-69
2022/10/14 05:23:45;;;;;;;17.80;11.27;;;;;;;8.19;100.00;100787.88;5036029;28;20234;-70
2022/10/14 05:26:11;;;;;;;21.33;11.93;;;;;;;8.17;100.00;100790.50;5043777;28;20204;-70
2022/10/14 05:28:41;;;;;;;18.83;11.37;;;;;;;8.17;100.00;100784.44;5036906;28;20198;-70
2022/10/14 05:31:08;;;;;;;20.63;11.73;;;;;;;8.18;100.00;100784.44;5044408;28;20705;-70
2022/10/14 05:33:42;;;;;;;19.70;11.93;;;;;;;8.20;100.00;100792.22;5046694;28;20204;-71
2022/10/14 05:36:09;;;;;;;15.90;10.43;;;;;;;8.23;100.00;100792.13;5039024;28;20293;-68
2022/10/14 05:38:36;;;;;;;21.53;11.97;;;;;;;8.28;100.00;100780.78;5046041;28;20191;-71
2022/10/14 05:41:03;;;;;;;22.70;11.80;;;;;;;8.31;100.00;100782.50;5054788;28;20203;-70
2022/10/14 05:43:30;;;;;;;19.27;11.80;;;;;;;8.33;100.00;100786.78;5040412;28;20203;-70
2022/10/14 05:45:58;;;;;;;19.90;12.10;;;;;;;8.36;100.00;100783.31;5037064;28;20595;-70
2022/10/14 05:48:28;;;;;;;22.17;12.40;;;;;;;8.39;100.00;100791.06;5047357;28;20196;-69
2022/10/14 05:50:55;;;;;;;19.10;10.93;;;;;;;8.42;100.00;100791.03;5067877;28;20303;-71
2022/10/14 05:53:24;;;;;;;22.07;11.43;;;;;;;8.47;100.00;100790.97;5046313;28;20613;-68
2022/10/14 05:56:01;;;;;;;22.30;11.40;;;;;;;8.51;100.00;100788.31;5044943;28;21021;-69
2022/10/14 05:58:27;;;;;;;20.87;12.10;;;;;;;8.57;100.00;100783.91;5060753;28;20183;-70
2022/10/14 06:00:54;;;;;;;22.80;12.20;;;;;;;8.61;100.00;100789.00;5034363;28;20198;-68
2022/10/14 06:03:22;;;;;;;17.87;11.50;;;;;;;8.66;100.00;100792.41;5043280;28;20474;-70
2022/10/14 06:05:49;;;;;;;21.63;11.60;;;;;;;8.71;100.00;100795.78;5039143;28;20331;-71
2022/10/14 06:08:16;;;;;;;19.87;12.43;;;;;;;8.74;100.00;100802.66;5037058;28;20211;-70
2022/10/14 06:10:45;;;;;;;25.50;11.50;;;;;;;8.77;100.00;100797.44;5045164;28;20203;-71
2022/10/14 06:13:11;;;;;;;22.40;11.87;;;;;;;8.81;100.00;100801.72;5058264;28;20714;-70
2022/10/14 06:15:40;;;;;;;25.87;12.33;;;;;;;8.85;100.00;100799.94;5074340;28;20221;-71
2022/10/14 06:18:06;;;;;;;20.37;11.90;;;;;;;8.88;100.00;100799.84;5042544;28;20692;-71
2022/10/14 06:20:35;;;;;;;22.03;12.23;;;;;;;8.91;100.00;100792.00;5041806;28;20208;-69
2022/10/14 06:23:02;;;;;;;18.03;11.80;;;;;;;8.96;100.00;100807.56;5058472;28;20284;-70
2022/10/14 06:25:29;;;;;;;21.57;12.10;;;;;;;8.99;100.00;100805.75;5053818;28;20221;-71
2022/10/14 06:27:55;;;;;;;21.67;12.50;;;;;;;9.04;100.00;100803.06;5066030;28;20200;-69
2022/10/14 06:30:22;;;;;;;21.97;12.27;;;;;;;9.07;100.00;100797.81;5065674;28;20211;-70
2022/10/14 06:32:48;;;;;;;19.00;12.23;;;;;;;9.11;100.00;100802.06;5047941;28;20772;-70
2022/10/14 06:35:15;;;;;;;22.80;12.53;;;;;;;9.14;100.00;100798.56;5062007;28;20630;-68
2022/10/14 06:37:45;;;;;;;21.30;11.97;;;;;;;9.18;100.00;100798.50;5066435;28;20200;-68
2022/10/14 06:40:11;;;;;;;21.90;12.17;;;;;;;9.23;100.00;100803.59;5065739;28;20285;-68
2022/10/14 06:42:38;;;;;;;20.00;12.80;;;;;;;9.24;100.00;100793.19;5073310;28;20253;-71
2022/10/14 06:45:06;;;;;;;24.87;12.50;;;;;;;9.28;100.00;100801.78;5059885;28;20680;-70
2022/10/14 06:47:32;;;;;;;22.30;12.70;;;;;;;9.32;100.00;100798.22;5048747;28;20390;-70
2022/10/14 06:49:59;;;;;;;17.97;11.87;;;;;;;9.36;100.00;100807.72;5060193;28;20208;-71
2022/10/14 06:52:25;;;;;;;22.93;13.03;;;;;;;9.40;100.00;100801.56;5054432;28;20204;-71
2022/10/14 06:54:53;;;;;;;24.60;12.17;;;;;;;9.44;100.00;100802.34;5065116;28;20213;-70
2022/10/14 06:57:19;;;;;;;20.00;11.50;;;;;;;9.47;100.00;100804.91;5068727;28;20212;-70
2022/10/14 06:59:46;;;;;;;20.40;11.67;;;;;;;9.52;100.00;100812.66;5049484;28;20206;-71
2022/10/14 07:02:12;;;;;;;19.43;12.30;;;;;;;9.55;100.00;100803.03;5078322;28;20259;-71
2022/10/14 07:04:39;;;;;;;20.33;11.70;;;;;;;9.60;100.00;100800.31;5059733;28;20220;-70
2022/10/14 07:07:06;;;;;;;25.00;12.77;;;;;;;9.66;100.00;100802.81;5068098;28;20206;-70
2022/10/14 07:09:33;;;;;;;22.27;11.83;;;;;;;9.70;100.00;100804.47;5066119;28;20198;-70
2022/10/14 07:12:01;;;;;;;20.80;12.10;;;;;;;9.76;100.00;100806.09;5052237;28;20221;-70
2022/10/14 07:14:27;;;;;;;18.80;11.93;;;;;;;9.78;100.00;100801.69;5049000;28;20303;-71
2022/10/14 07:16:53;;;;;;;21.60;12.97;;;;;;;9.83;100.00;100805.94;5061363;28;20206;-70
2022/10/14 07:19:20;;;;;;;23.53;12.87;;;;;;;9.86;100.00;100808.47;5066166;28;20302;-70
2022/10/14 07:21:46;;;;;;;20.97;12.27;;;;;;;9.93;100.00;100808.38;5070995;28;20201;-71
2022/10/14 07:24:13;;;;;;;21.83;13.00;;;;;;;9.97;100.00;100804.78;5068643;28;20218;-69
2022/10/14 07:26:39;;;;;;;21.27;12.77;;;;;;;10.00;100.00;100802.97;5068393;28;20205;-69
2022/10/14 07:29:08;;;;;;;24.27;13.20;;;;;;;10.05;100.00;100802.91;5071275;28;20667;-71
2022/10/14 07:31:35;;;;;;;24.00;13.00;;;;;;;10.10;100.00;100802.81;5063981;28;20200;-71
2022/10/14 07:34:01;;;;;;;23.47;12.53;;;;;;;10.15;100.00;100800.94;5056191;28;20229;-70
2022/10/14 07:36:28;;;;;;;25.50;12.93;;;;;;;10.21;100.00;100803.44;5042651;28;20201;-71
2022/10/14 07:38:55;;;;;;;22.83;13.07;;;;;;;10.27;100.00;100803.28;5061403;28;20567;-71
2022/10/14 07:41:23;;;;;;;23.97;12.53;;;;;;;10.34;100.00;100791.88;5067794;28;20254;-71
2022/10/14 07:43:52;;;;;;;24.97;13.23;;;;;;;10.39;100.00;100795.22;5068983;28;20200;-69
2022/10/14 07:46:28;;;;;;;22.97;12.73;;;;;;;10.47;100.00;100802.03;5048262;28;20199;-71
2022/10/14 07:48:54;;;;;;;20.67;11.37;;;;;;;10.54;100.00;100809.66;5065924;28;20196;-70
2022/10/14 07:51:20;;;;;;;22.07;12.93;;;;;;;10.62;100.00;100804.25;5061045;28;20993;-70
2022/10/14 07:53:48;;;;;;;21.67;11.90;;;;;;;10.69;100.00;100804.97;5049182;28;20690;-71
2022/10/14 07:56:15;;;;;;;20.80;12.17;;;;;;;10.75;100.00;100800.47;5062707;28;20198;-70
2022/10/14 07:58:41;;;;;;;27.93;12.53;;;;;;;10.83;100.00;100794.22;5064294;28;20654;-68
2022/10/14 08:01:08;;;;;;;20.43;12.13;;;;;;;10.90;100.00;100796.63;5064363;28;20190;-70
2022/10/14 08:03:36;;;;;;;20.70;11.77;;;;;;;10.96;100.00;100806.06;5052797;28;20197;-69
2022/10/14 08:06:05;;;;;;;20.83;11.77;;;;;;;11.04;100.00;100804.13;5057225;28;20195;-69
2022/10/14 08:08:31;;;;;;;20.00;11.30;;;;;;;11.12;100.00;100806.56;5064191;28;20197;-70
2022/10/14 08:11:02;;;;;;;19.63;11.20;;;;;;;11.21;100.00;100811.53;5051296;28;20688;-70
2022/10/14 08:13:29;;;;;;;23.50;12.80;;;;;;;11.32;100.00;100817.31;5045365;28;20212;-71
2022/10/14 08:15:56;;;;;;;18.07;11.50;;;;;;;11.43;100.00;100816.19;5057842;28;20234;-70
2022/10/14 08:18:23;;;;;;;18.70;12.27;;;;;;;11.50;100.00;100817.72;5036289;28;20205;-71
2022/10/14 08:20:51;;;;;;;17.67;10.30;;;;;;;11.60;100.00;100819.19;5065251;28;20504;-70
2022/10/14 08:23:17;;;;;;;20.00;12.33;;;;;;;11.70;100.00;100823.28;5063283;28;20191;-71
2022/10/14 08:25:44;;;;;;;18.50;11.37;;;;;;;11.78;100.00;100820.44;5072128;22;20614;-68
2022/10/14 08:28:10;;;;;;;14.30;9.77;;;;;;;11.86;100.00;100822.84;5036664;28;20195;-69
2022/10/14 08:30:37;;;;;;;16.47;10.17;;;;;;;11.97;100.00;100817.34;5053684;28;20211;-69
2022/10/14 08:33:03;;;;;;;16.63;8.87;;;;;;;12.06;100.00;100819.69;5058066;28;20770;-69
2022/10/14 08:35:29;;;;;;;14.17;8.90;;;;;;;12.18;100.00;100821.94;5057821;28;20191;-69
2022/10/14 08:37:59;;;;;;;13.83;9.27;;;;;;;12.29;100.00;100813.78;5056618;28;20201;-69
2022/10/14 08:40:28;;;;;;;14.40;9.10;;;;;;;12.39;100.00;100809.13;5073431;23;20238;-73
2022/10/14 08:43:02;;;;;;;13.43;8.00;;;;;;;12.47;100.00;100817.56;5037515;28;20205;-74
2022/10/14 08:45:33;;;;;;;13.17;8.43;;;;;;;12.58;100.00;100810.25;5041374;28;20260;-74
2022/10/14 08:48:02;;;;;;;16.53;8.50;;;;;;;12.62;100.00;100811.88;5042237;28;20210;-74
2022/10/14 08:50:33;;;;;;;15.67;8.80;;;;;;;12.73;100.00;100813.28;5041873;28;20227;-74
2022/10/14 08:53:06;;;;;;;12.43;7.97;;;;;;;12.84;100.00;100817.28;5024438;28;20205;-73
2022/10/14 08:55:36;;;;;;;12.43;7.33;;;;;;;12.97;100.00;100812.50;5022443;28;20705;-74
2022/10/14 08:58:08;;;;;;;13.57;7.57;;;;;;;13.06;100.00;100811.34;5037464;28;20227;-74
2022/10/14 09:00:35;;;;;;;14.70;8.13;;;;;;;13.13;100.00;100812.00;5020008;28;20226;-74
2022/10/14 09:03:10;;;;;;;10.90;7.20;;;;;;;13.30;100.00;100811.41;5034693;28;20203;-74
2022/10/14 09:05:39;;;;;;;14.53;8.77;;;;;;;13.38;100.00;100815.50;5034450;28;20210;-73
2022/10/14 09:08:11;;;;;;;11.37;6.97;;;;;;;13.48;100.00;100818.66;5035474;28;20421;-73
2022/10/14 09:10:41;;;;;;;11.43;7.13;;;;;;;13.51;100.00;100823.81;5032561;28;20279;-73
2022/10/14 09:13:15;;;;;;;11.40;6.97;;;;;;;13.61;100.00;100819.06;5035558;28;20652;-73
2022/10/14 09:15:44;;;;;;;10.37;7.43;;;;;;;13.67;100.00;100824.09;5040239;28;20206;-74
2022/10/14 09:18:22;;;;;;;10.57;7.40;;;;;;;13.78;100.00;100823.72;5038823;28;20203;-74
2022/10/14 09:20:49;;;;;;;9.27;6.60;;;;;;;13.88;100.00;100827.72;5029159;28;20222;-74
2022/10/14 09:23:19;;;;;;;12.03;6.77;;;;;;;13.97;100.00;100824.75;5038837;28;20480;-74
2022/10/14 09:25:56;;;;;;;12.23;6.90;;;;;;;14.06;100.00;100814.84;5041031;28;20191;-73
2022/10/14 09:28:30;;;;;;;10.33;6.87;;;;;;;14.17;100.00;100820.53;5030486;28;20207;-74
2022/10/14 09:30:57;;;;;;;11.70;7.40;;;;;;;14.22;100.00;100818.59;5030557;28;20241;-73
2022/10/14 09:33:26;;;;;;;13.20;7.53;;;;;;;14.20;100.00;100818.63;5038378;28;20274;-74
2022/10/14 09:35:53;;;;;;;12.13;7.57;;;;;;;14.26;100.00;100812.28;5041829;28;20214;-74
2022/10/14 09:38:21;;;;;;;17.27;8.10;;;;;;;14.28;100.00;100815.75;5041438;28;20398;-73
2022/10/14 09:40:50;;;;;;;10.17;6.93;;;;;;;14.35;100.00;100811.09;5043777;28;20321;-73
2022/10/14 09:43:23;;;;;;;9.97;6.43;;;;;;;14.44;100.00;100805.50;5061022;28;20186;-74
2022/10/14 09:45:53;;;;;;;10.27;6.67;;;;;;;14.36;100.00;100812.81;5035629;28;20203;-74
2022/10/14 09:48:28;;;;;;;9.93;5.90;;;;;;;14.39;100.00;100800.44;5057682;28;20209;-73
2022/10/14 09:50:56;;;;;;;10.23;6.47;;;;;;;14.43;100.00;100806.41;5060963;28;20218;-73
2022/10/14 09:53:28;;;;;;;12.17;6.67;;;;;;;14.35;100.00;100798.84;5058810;28;20893;-74
2022/10/14 09:55:58;;;;;;;8.80;6.27;;;;;;;14.33;100.00;100807.69;5054021;28;20197;-73
2022/10/14 09:58:31;;;;;;;10.03;6.13;;;;;;;14.31;100.00;100794.63;5042879;28;20230;-73
2022/10/14 10:01:00;;;;;;;11.17;6.33;;;;;;;14.42;100.00;100796.81;5053071;28;20222;-74
2022/10/14 10:03:31;;;;;;;9.20;6.27;;;;;;;14.49;100.00;100797.44;5054044;28;20588;-73
2022/10/14 10:06:06;;;;;;;9.73;6.20;;;;;;;14.48;100.00;100796.59;5054659;28;20200;-73
2022/10/14 10:08:35;;;;;;;9.90;6.27;;;;;;;14.47;100.00;100794.03;5055926;28;20199;-73
2022/10/14 10:11:04;;;;;;;10.67;6.40;;;;;;;14.51;100.00;100796.47;5057057;28;20230;-73
2022/10/14 10:13:39;;;;;;;9.87;6.47;;;;;;;14.55;100.00;100790.19;5055663;28;20195;-73
2022/10/14 10:16:08;;;;;;;12.67;7.13;;;;;;;14.60;100.00;100789.16;5045395;28;20197;-74
2022/10/14 10:18:34;;;;;;;10.17;6.30;;;;;;;14.60;100.00;100786.53;5053708;28;20194;-73
2022/10/14 10:21:06;;;;;;;9.20;6.20;;;;;;;14.55;100.00;100778.84;5044155;28;20550;-73
2022/10/14 10:23:35;;;;;;;7.10;5.43;;;;;;;14.59;100.00;100783.06;5041228;28;20203;-73
2022/10/14 10:26:19;;;;;;;10.37;6.27;;;;;;;14.65;100.00;100772.34;5056992;28;20562;-73
2022/10/14 10:28:48;;;;;;;10.33;6.03;;;;;;;14.72;100.00;100779.03;5043234;28;20190;-72
2022/10/14 10:31:27;;;;;;;9.73;6.17;;;;;;;14.77;100.00;100773.59;5060590;28;20214;-73
2022/10/14 10:34:01;;;;;;;9.33;5.27;;;;;;;14.74;100.00;100765.88;5060966;28;20219;-74
2022/10/14 10:36:33;;;;;;;8.97;5.77;;;;;;;14.73;100.00;100764.16;5065263;28;20194;-74
2022/10/14 10:39:13;;;;;;;13.07;6.10;;;;;;;14.80;100.00;100760.34;5051381;28;20202;-73
2022/10/14 10:42:01;;;;;;;10.67;6.40;;;;;;;14.99;100.00;100760.44;5061723;28;20194;-73
2022/10/14 10:44:40;;;;;;;11.37;6.00;;;;;;;15.10;100.00;100760.81;5063565;28;20697;-73
2022/10/14 10:47:23;;;;;;;7.33;5.17;;;;;;;15.11;100.00;100764.31;5043380;28;20202;-74
2022/10/14 10:50:21;;;;;;;11.50;5.57;;;;;;;15.22;100.00;100762.06;5045140;28;20408;-73
2022/10/14 10:53:14;;;;;;;10.53;5.70;;;;;;;15.37;100.00;100770.19;5060083;28;20214;-73
2022/10/14 10:55:52;;;;;;;5.80;4.73;;;;;;;15.57;100.00;100764.09;5052112;28;20227;-73
2022/10/14 10:58:35;;;;;;;9.47;4.97;;;;;;;15.74;100.00;100766.78;5065402;28;20388;-73
2022/10/14 11:01:11;;;;;;;9.00;5.00;;;;;;;15.93;100.00;100756.31;5046187;28;20226;-73
2022/10/14 11:03:52;;;;;;;8.73;5.53;;;;;;;16.02;100.00;100761.16;5060660;28;20198;-72
2022/10/14 11:12:12;;;;;;;8.17;4.60;;;;;;;16.46;100.00;100752.03;5044236;28;20942;-72
2022/10/14 11:15:02;;;;;;;9.40;4.87;;;;;;;16.56;100.00;100753.31;5056061;28;20222;-73
2022/10/14 11:17:38;;;;;;;9.50;4.30;;;;;;;16.61;100.00;100753.94;5047304;28;20210;-72
2022/10/14 11:20:16;;;;;;;8.03;4.40;;;;;;;16.63;100.00;100748.59;5059864;28;20233;-73
2022/10/14 11:23:08;;;;;;;5.00;3.70;;;;;;;16.43;100.00;100746.97;5058869;28;20229;-72
2022/10/14 11:25:48;;;;;;;9.43;4.67;;;;;;;16.39;100.00;100745.38;5063412;28;20285;-73
2022/10/14 11:28:23;;;;;;;6.43;4.00;;;;;;;16.48;100.00;100739.69;5061282;28;20210;-74
2022/10/14 11:30:57;;;;;;;7.30;4.40;;;;;;;16.36;100.00;100749.03;5048671;28;20216;-71
2022/10/14 11:33:39;;;;;;;5.27;3.87;;;;;;;16.22;100.00;100733.91;5056322;28;20624;-71